sensor_id;sensor_type;location;lat;lon;timestamp;P1;durP1;ratioP1;P2;durP2;ratioP2
70547;SDS011;58099;43.406;3.698;2022-09-17T00:01:18;4.28;;;1.50;;
70547;SDS011;58099;43.406;3.698;2022-09-17T00:03:52;3.97;;;1.27;;
70547;SDS011;58099;43.406;3.698;2022-09-17T00:06:20;4.18;;;1.30;;
70547;SDS011;58099;43.406;3.698;2022-09-17T00:08:48;3.55;;;1.42;;
70547;SDS011;58099;43.406;3.698;2022-09-17T00:11:19;3.93;;;1.30;;
70547;SDS011;58099;43.406;3.698;2022-09-17T00:13:47;4.38;;;1.13;;
70547;SDS011;58099;43.406;3.698;2022-09-17T00:16:20;3.83;;;1.20;;
70547;SDS011;58099;43.406;3.698;2022-09-17T00:18:58;4.35;;;1.35;;
70547;SDS011;58099;43.406;3.698;2022-09-17T00:21:24;5.43;;;1.50;;
70547;SDS011;58099;43.406;3.698;2022-09-17T00:23:54;4.80;;;1.40;;
70547;SDS011;58099;43.406;3.698;2022-09-17T00:26:21;4.03;;;1.48;;
70547;SDS011;58099;43.406;3.698;2022-09-17T00:28:48;4.20;;;1.30;;
70547;SDS011;58099;43.406;3.698;2022-09-17T00:31:15;4.80;;;1.40;;
70547;SDS011;58099;43.406;3.698;2022-09-17T00:33:40;5.20;;;1.50;;
70547;SDS011;58099;43.406;3.698;2022-09-17T00:36:06;4.28;;;1.30;;
70547;SDS011;58099;43.406;3.698;2022-09-17T00:38:32;5.28;;;1.50;;
70547;SDS011;58099;43.406;3.698;2022-09-17T00:40:59;5.10;;;1.25;;
70547;SDS011;58099;43.406;3.698;2022-09-17T00:43:59;3.55;;;1.48;;
70547;SDS011;58099;43.406;3.698;2022-09-17T00:49:05;4.60;;;1.53;;
70547;SDS011;58099;43.406;3.698;2022-09-17T00:51:38;5.95;;;1.70;;
70547;SDS011;58099;43.406;3.698;2022-09-17T00:54:07;5.57;;;1.73;;
70547;SDS011;58099;43.406;3.698;2022-09-17T00:56:36;7.07;;;1.50;;
70547;SDS011;58099;43.406;3.698;2022-09-17T00:59:04;4.53;;;1.27;;
70547;SDS011;58099;43.406;3.698;2022-09-17T01:01:30;4.50;;;1.70;;
70547;SDS011;58099;43.406;3.698;2022-09-17T01:03:57;4.47;;;1.40;;
70547;SDS011;58099;43.406;3.698;2022-09-17T01:25:22;5.03;;;1.48;;
70547;SDS011;58099;43.406;3.698;2022-09-17T01:36:38;4.57;;;1.50;;
70547;SDS011;58099;43.406;3.698;2022-09-17T01:38:53;4.47;;;1.23;;
70547;SDS011;58099;43.406;3.698;2022-09-17T01:45:22;4.22;;;1.50;;
70547;SDS011;58099;43.406;3.698;2022-09-17T01:47:28;4.95;;;1.40;;
70547;SDS011;58099;43.406;3.698;2022-09-17T01:49:59;4.43;;;1.23;;
70547;SDS011;58099;43.406;3.698;2022-09-17T01:52:30;4.00;;;1.45;;
70547;SDS011;58099;43.406;3.698;2022-09-17T01:54:58;4.50;;;1.50;;
70547;SDS011;58099;43.406;3.698;2022-09-17T02:00:39;5.85;;;1.17;;
70547;SDS011;58099;43.406;3.698;2022-09-17T02:05:52;3.80;;;1.30;;
70547;SDS011;58099;43.406;3.698;2022-09-17T02:08:25;4.13;;;1.25;;
70547;SDS011;58099;43.406;3.698;2022-09-17T02:11:06;4.28;;;1.13;;
70547;SDS011;58099;43.406;3.698;2022-09-17T02:13:39;4.82;;;1.40;;
70547;SDS011;58099;43.406;3.698;2022-09-17T02:16:13;3.67;;;1.20;;
70547;SDS011;58099;43.406;3.698;2022-09-17T02:18:54;4.70;;;1.20;;
70547;SDS011;58099;43.406;3.698;2022-09-17T02:21:21;4.57;;;1.40;;
70547;SDS011;58099;43.406;3.698;2022-09-17T02:23:59;4.53;;;1.30;;
70547;SDS011;58099;43.406;3.698;2022-09-17T02:27:05;3.97;;;1.20;;
70547;SDS011;58099;43.406;3.698;2022-09-17T02:29:34;4.50;;;1.37;;
70547;SDS011;58099;43.406;3.698;2022-09-17T02:32:02;5.20;;;1.42;;
70547;SDS011;58099;43.406;3.698;2022-09-17T02:34:29;4.78;;;1.20;;
70547;SDS011;58099;43.406;3.698;2022-09-17T02:36:55;6.45;;;1.20;;
70547;SDS011;58099;43.406;3.698;2022-09-17T02:39:23;4.10;;;1.17;;
70547;SDS011;58099;43.406;3.698;2022-09-17T02:58:07;4.30;;;1.48;;
70547;SDS011;58099;43.406;3.698;2022-09-17T03:00:38;4.35;;;1.20;;
70547;SDS011;58099;43.406;3.698;2022-09-17T03:03:06;4.13;;;1.10;;
70547;SDS011;58099;43.406;3.698;2022-09-17T03:05:41;5.33;;;1.40;;
70547;SDS011;58099;43.406;3.698;2022-09-17T03:08:11;4.15;;;1.35;;
70547;SDS011;58099;43.406;3.698;2022-09-17T03:10:38;5.93;;;1.35;;
70547;SDS011;58099;43.406;3.698;2022-09-17T03:13:04;6.68;;;1.60;;
70547;SDS011;58099;43.406;3.698;2022-09-17T03:15:31;6.25;;;1.23;;
70547;SDS011;58099;43.406;3.698;2022-09-17T03:17:56;3.60;;;1.30;;
70547;SDS011;58099;43.406;3.698;2022-09-17T03:20:22;6.03;;;1.38;;
70547;SDS011;58099;43.406;3.698;2022-09-17T03:22:49;3.30;;;1.00;;
70547;SDS011;58099;43.406;3.698;2022-09-17T03:25:15;5.53;;;1.20;;
70547;SDS011;58099;43.406;3.698;2022-09-17T03:27:41;4.90;;;1.25;;
70547;SDS011;58099;43.406;3.698;2022-09-17T03:30:07;5.80;;;1.40;;
70547;SDS011;58099;43.406;3.698;2022-09-17T03:32:33;5.97;;;1.27;;
70547;SDS011;58099;43.406;3.698;2022-09-17T03:34:59;4.37;;;1.30;;
70547;SDS011;58099;43.406;3.698;2022-09-17T03:37:24;4.15;;;1.27;;
70547;SDS011;58099;43.406;3.698;2022-09-17T03:39:50;4.53;;;1.13;;
70547;SDS011;58099;43.406;3.698;2022-09-17T03:42:16;5.05;;;1.60;;
70547;SDS011;58099;43.406;3.698;2022-09-17T03:44:42;4.82;;;1.15;;
70547;SDS011;58099;43.406;3.698;2022-09-17T03:47:08;5.32;;;1.27;;
70547;SDS011;58099;43.406;3.698;2022-09-17T03:49:33;5.15;;;1.35;;
70547;SDS011;58099;43.406;3.698;2022-09-17T03:51:59;4.47;;;1.27;;
70547;SDS011;58099;43.406;3.698;2022-09-17T03:54:25;4.65;;;1.40;;
70547;SDS011;58099;43.406;3.698;2022-09-17T03:56:51;5.53;;;1.40;;
70547;SDS011;58099;43.406;3.698;2022-09-17T03:59:16;4.55;;;1.05;;
70547;SDS011;58099;43.406;3.698;2022-09-17T04:01:42;4.33;;;1.33;;
70547;SDS011;58099;43.406;3.698;2022-09-17T04:04:08;4.38;;;1.23;;
70547;SDS011;58099;43.406;3.698;2022-09-17T04:06:33;4.65;;;1.15;;
70547;SDS011;58099;43.406;3.698;2022-09-17T04:08:59;4.22;;;1.48;;
70547;SDS011;58099;43.406;3.698;2022-09-17T04:11:27;4.00;;;1.02;;
70547;SDS011;58099;43.406;3.698;2022-09-17T04:13:53;4.33;;;1.03;;
70547;SDS011;58099;43.406;3.698;2022-09-17T04:16:18;4.63;;;1.03;;
70547;SDS011;58099;43.406;3.698;2022-09-17T04:18:44;3.63;;;1.00;;
70547;SDS011;58099;43.406;3.698;2022-09-17T04:21:10;4.20;;;1.30;;
70547;SDS011;58099;43.406;3.698;2022-09-17T04:23:35;4.47;;;1.30;;
70547;SDS011;58099;43.406;3.698;2022-09-17T04:26:01;8.10;;;1.30;;
70547;SDS011;58099;43.406;3.698;2022-09-17T04:28:27;4.95;;;1.30;;
70547;SDS011;58099;43.406;3.698;2022-09-17T04:30:52;4.23;;;1.10;;
70547;SDS011;58099;43.406;3.698;2022-09-17T04:33:18;5.53;;;1.50;;
70547;SDS011;58099;43.406;3.698;2022-09-17T04:35:44;5.32;;;1.38;;
70547;SDS011;58099;43.406;3.698;2022-09-17T04:38:09;4.47;;;1.40;;
70547;SDS011;58099;43.406;3.698;2022-09-17T04:40:38;5.22;;;1.25;;
70547;SDS011;58099;43.406;3.698;2022-09-17T04:43:06;4.95;;;1.45;;
70547;SDS011;58099;43.406;3.698;2022-09-17T04:45:33;4.93;;;1.33;;
70547;SDS011;58099;43.406;3.698;2022-09-17T04:47:59;5.43;;;1.30;;
70547;SDS011;58099;43.406;3.698;2022-09-17T04:50:25;3.67;;;1.05;;
70547;SDS011;58099;43.406;3.698;2022-09-17T04:56:13;4.43;;;1.30;;
70547;SDS011;58099;43.406;3.698;2022-09-17T04:58:39;6.05;;;1.25;;
70547;SDS011;58099;43.406;3.698;2022-09-17T05:01:05;5.20;;;1.30;;
70547;SDS011;58099;43.406;3.698;2022-09-17T05:03:30;4.70;;;1.27;;
70547;SDS011;58099;43.406;3.698;2022-09-17T05:05:56;4.67;;;1.60;;
70547;SDS011;58099;43.406;3.698;2022-09-17T05:08:21;4.10;;;1.30;;
70547;SDS011;58099;43.406;3.698;2022-09-17T05:10:50;4.82;;;1.40;;
70547;SDS011;58099;43.406;3.698;2022-09-17T05:13:16;6.03;;;1.50;;
70547;SDS011;58099;43.406;3.698;2022-09-17T05:15:42;4.35;;;1.33;;
70547;SDS011;58099;43.406;3.698;2022-09-17T05:18:09;5.60;;;1.33;;
70547;SDS011;58099;43.406;3.698;2022-09-17T05:20:35;5.17;;;1.50;;
70547;SDS011;58099;43.406;3.698;2022-09-17T05:23:00;4.10;;;1.30;;
70547;SDS011;58099;43.406;3.698;2022-09-17T05:25:26;4.90;;;1.30;;
70547;SDS011;58099;43.406;3.698;2022-09-17T05:27:52;4.55;;;1.20;;
70547;SDS011;58099;43.406;3.698;2022-09-17T05:30:18;5.30;;;1.20;;
70547;SDS011;58099;43.406;3.698;2022-09-17T05:32:45;6.57;;;1.60;;
70547;SDS011;58099;43.406;3.698;2022-09-17T05:35:11;4.88;;;1.25;;
70547;SDS011;58099;43.406;3.698;2022-09-17T05:37:37;4.25;;;1.30;;
70547;SDS011;58099;43.406;3.698;2022-09-17T05:40:03;5.23;;;1.47;;
70547;SDS011;58099;43.406;3.698;2022-09-17T05:42:33;6.43;;;1.40;;
70547;SDS011;58099;43.406;3.698;2022-09-17T05:44:59;4.00;;;1.63;;
70547;SDS011;58099;43.406;3.698;2022-09-17T05:47:24;5.20;;;1.50;;
70547;SDS011;58099;43.406;3.698;2022-09-17T05:49:50;5.10;;;1.50;;
70547;SDS011;58099;43.406;3.698;2022-09-17T05:52:16;4.30;;;1.20;;
70547;SDS011;58099;43.406;3.698;2022-09-17T05:54:41;6.38;;;1.30;;
70547;SDS011;58099;43.406;3.698;2022-09-17T05:57:07;4.93;;;1.67;;
70547;SDS011;58099;43.406;3.698;2022-09-17T05:59:33;5.10;;;1.38;;
70547;SDS011;58099;43.406;3.698;2022-09-17T06:02:00;5.17;;;1.80;;
70547;SDS011;58099;43.406;3.698;2022-09-17T06:04:25;4.20;;;1.50;;
70547;SDS011;58099;43.406;3.698;2022-09-17T06:06:51;3.90;;;1.23;;
70547;SDS011;58099;43.406;3.698;2022-09-17T06:09:17;4.53;;;1.17;;
70547;SDS011;58099;43.406;3.698;2022-09-17T06:11:42;4.80;;;1.70;;
70547;SDS011;58099;43.406;3.698;2022-09-17T06:14:09;5.43;;;1.83;;
70547;SDS011;58099;43.406;3.698;2022-09-17T06:16:34;4.80;;;1.25;;
70547;SDS011;58099;43.406;3.698;2022-09-17T06:19:00;4.20;;;1.40;;
70547;SDS011;58099;43.406;3.698;2022-09-17T06:21:27;4.40;;;1.30;;
70547;SDS011;58099;43.406;3.698;2022-09-17T06:23:52;5.57;;;1.50;;
70547;SDS011;58099;43.406;3.698;2022-09-17T06:26:18;5.07;;;1.40;;
70547;SDS011;58099;43.406;3.698;2022-09-17T06:28:44;4.40;;;1.57;;
70547;SDS011;58099;43.406;3.698;2022-09-17T06:31:10;3.67;;;1.10;;
70547;SDS011;58099;43.406;3.698;2022-09-17T06:33:37;6.40;;;1.50;;
70547;SDS011;58099;43.406;3.698;2022-09-17T06:36:07;5.82;;;1.30;;
70547;SDS011;58099;43.406;3.698;2022-09-17T06:38:35;4.60;;;1.20;;
70547;SDS011;58099;43.406;3.698;2022-09-17T06:41:01;4.35;;;1.30;;
70547;SDS011;58099;43.406;3.698;2022-09-17T06:43:27;4.45;;;1.30;;
70547;SDS011;58099;43.406;3.698;2022-09-17T06:45:57;4.37;;;1.57;;
70547;SDS011;58099;43.406;3.698;2022-09-17T06:48:31;3.88;;;1.40;;
70547;SDS011;58099;43.406;3.698;2022-09-17T06:51:02;4.85;;;1.30;;
70547;SDS011;58099;43.406;3.698;2022-09-17T06:53:29;4.70;;;1.17;;
70547;SDS011;58099;43.406;3.698;2022-09-17T06:55:55;5.67;;;1.20;;
70547;SDS011;58099;43.406;3.698;2022-09-17T06:58:22;4.55;;;1.10;;
70547;SDS011;58099;43.406;3.698;2022-09-17T07:00:48;3.67;;;1.23;;
70547;SDS011;58099;43.406;3.698;2022-09-17T07:03:14;3.50;;;1.30;;
70547;SDS011;58099;43.406;3.698;2022-09-17T07:05:41;3.60;;;1.30;;
70547;SDS011;58099;43.406;3.698;2022-09-17T07:08:08;4.55;;;1.35;;
70547;SDS011;58099;43.406;3.698;2022-09-17T07:10:35;3.35;;;1.00;;
70547;SDS011;58099;43.406;3.698;2022-09-17T07:13:01;3.20;;;1.10;;
70547;SDS011;58099;43.406;3.698;2022-09-17T07:18:49;5.13;;;1.50;;
70547;SDS011;58099;43.406;3.698;2022-09-17T07:21:15;3.60;;;1.10;;
70547;SDS011;58099;43.406;3.698;2022-09-17T07:23:41;3.92;;;1.00;;
70547;SDS011;58099;43.406;3.698;2022-09-17T07:26:09;5.07;;;1.30;;
70547;SDS011;58099;43.406;3.698;2022-09-17T07:28:37;3.42;;;1.05;;
70547;SDS011;58099;43.406;3.698;2022-09-17T07:31:04;4.72;;;1.35;;
70547;SDS011;58099;43.406;3.698;2022-09-17T07:33:32;3.33;;;0.80;;
70547;SDS011;58099;43.406;3.698;2022-09-17T07:36:00;3.65;;;0.90;;
70547;SDS011;58099;43.406;3.698;2022-09-17T07:38:27;3.73;;;1.17;;
70547;SDS011;58099;43.406;3.698;2022-09-17T07:40:57;4.70;;;1.38;;
70547;SDS011;58099;43.406;3.698;2022-09-17T07:43:44;4.95;;;1.27;;
70547;SDS011;58099;43.406;3.698;2022-09-17T07:46:14;3.00;;;0.90;;
70547;SDS011;58099;43.406;3.698;2022-09-17T07:48:41;3.58;;;1.20;;
70547;SDS011;58099;43.406;3.698;2022-09-17T07:51:06;3.50;;;1.20;;
70547;SDS011;58099;43.406;3.698;2022-09-17T07:53:32;5.28;;;1.30;;
70547;SDS011;58099;43.406;3.698;2022-09-17T07:55:58;3.47;;;1.23;;
70547;SDS011;58099;43.406;3.698;2022-09-17T07:58:29;4.18;;;1.30;;
70547;SDS011;58099;43.406;3.698;2022-09-17T08:01:04;4.22;;;1.40;;
70547;SDS011;58099;43.406;3.698;2022-09-17T08:03:32;4.27;;;1.40;;
70547;SDS011;58099;43.406;3.698;2022-09-17T08:06:09;4.95;;;1.17;;
70547;SDS011;58099;43.406;3.698;2022-09-17T08:08:36;4.10;;;0.90;;
70547;SDS011;58099;43.406;3.698;2022-09-17T08:11:07;3.88;;;0.88;;
70547;SDS011;58099;43.406;3.698;2022-09-17T08:13:41;4.22;;;1.20;;
70547;SDS011;58099;43.406;3.698;2022-09-17T08:16:10;4.63;;;0.97;;
70547;SDS011;58099;43.406;3.698;2022-09-17T08:18:39;5.00;;;1.20;;
70547;SDS011;58099;43.406;3.698;2022-09-17T08:21:07;3.60;;;0.90;;
70547;SDS011;58099;43.406;3.698;2022-09-17T08:23:35;4.28;;;1.40;;
70547;SDS011;58099;43.406;3.698;2022-09-17T08:26:02;5.53;;;2.75;;
70547;SDS011;58099;43.406;3.698;2022-09-17T08:28:30;3.83;;;1.40;;
70547;SDS011;58099;43.406;3.698;2022-09-17T08:31:00;4.70;;;1.00;;
70547;SDS011;58099;43.406;3.698;2022-09-17T08:33:29;3.85;;;1.10;;
70547;SDS011;58099;43.406;3.698;2022-09-17T08:35:56;3.35;;;0.93;;
70547;SDS011;58099;43.406;3.698;2022-09-17T08:38:24;4.95;;;1.30;;
70547;SDS011;58099;43.406;3.698;2022-09-17T08:46:27;4.00;;;0.90;;
70547;SDS011;58099;43.406;3.698;2022-09-17T08:49:01;4.13;;;1.00;;
70547;SDS011;58099;43.406;3.698;2022-09-17T09:00:05;4.88;;;1.60;;
70547;SDS011;58099;43.406;3.698;2022-09-17T09:07:44;2.80;;;0.63;;
70547;SDS011;58099;43.406;3.698;2022-09-17T09:12:44;4.05;;;0.75;;
70547;SDS011;58099;43.406;3.698;2022-09-17T09:17:50;2.70;;;0.70;;
70547;SDS011;58099;43.406;3.698;2022-09-17T09:20:18;4.10;;;0.83;;
70547;SDS011;58099;43.406;3.698;2022-09-17T09:22:54;2.55;;;0.50;;
70547;SDS011;58099;43.406;3.698;2022-09-17T09:25:25;3.45;;;0.95;;
70547;SDS011;58099;43.406;3.698;2022-09-17T09:31:02;4.30;;;0.77;;
70547;SDS011;58099;43.406;3.698;2022-09-17T09:33:40;3.07;;;0.57;;
70547;SDS011;58099;43.406;3.698;2022-09-17T09:36:11;2.97;;;0.52;;
70547;SDS011;58099;43.406;3.698;2022-09-17T09:38:50;4.38;;;1.13;;
70547;SDS011;58099;43.406;3.698;2022-09-17T09:41:33;2.90;;;0.63;;
70547;SDS011;58099;43.406;3.698;2022-09-17T09:44:10;4.75;;;1.40;;
70547;SDS011;58099;43.406;3.698;2022-09-17T09:55:19;3.78;;;0.60;;
70547;SDS011;58099;43.406;3.698;2022-09-17T10:00:53;3.33;;;0.60;;
70547;SDS011;58099;43.406;3.698;2022-09-17T10:03:20;3.25;;;0.60;;
70547;SDS011;58099;43.406;3.698;2022-09-17T10:06:29;2.47;;;0.50;;
70547;SDS011;58099;43.406;3.698;2022-09-17T10:11:24;3.03;;;0.50;;
70547;SDS011;58099;43.406;3.698;2022-09-17T10:16:44;3.65;;;0.75;;
70547;SDS011;58099;43.406;3.698;2022-09-17T10:19:18;2.70;;;0.57;;
70547;SDS011;58099;43.406;3.698;2022-09-17T10:21:49;3.00;;;0.50;;
70547;SDS011;58099;43.406;3.698;2022-09-17T10:24:49;2.53;;;0.60;;
70547;SDS011;58099;43.406;3.698;2022-09-17T10:27:16;3.75;;;0.80;;
70547;SDS011;58099;43.406;3.698;2022-09-17T10:29:44;3.27;;;0.83;;
70547;SDS011;58099;43.406;3.698;2022-09-17T10:32:15;3.35;;;0.70;;
70547;SDS011;58099;43.406;3.698;2022-09-17T10:35:04;3.45;;;0.63;;
70547;SDS011;58099;43.406;3.698;2022-09-17T10:45:25;2.88;;;0.60;;
70547;SDS011;58099;43.406;3.698;2022-09-17T10:47:52;4.00;;;1.10;;
70547;SDS011;58099;43.406;3.698;2022-09-17T10:50:28;2.65;;;0.63;;
70547;SDS011;58099;43.406;3.698;2022-09-17T10:52:56;3.20;;;0.70;;
70547;SDS011;58099;43.406;3.698;2022-09-17T11:06:28;3.38;;;0.80;;
70547;SDS011;58099;43.406;3.698;2022-09-17T11:30:41;3.38;;;1.02;;
70547;SDS011;58099;43.406;3.698;2022-09-17T11:33:27;2.83;;;1.00;;
70547;SDS011;58099;43.406;3.698;2022-09-17T11:36:19;2.92;;;1.23;;
70547;SDS011;58099;43.406;3.698;2022-09-17T11:42:13;3.28;;;0.85;;
70547;SDS011;58099;43.406;3.698;2022-09-17T11:47:23;3.40;;;0.73;;
70547;SDS011;58099;43.406;3.698;2022-09-17T11:53:23;2.80;;;0.97;;
70547;SDS011;58099;43.406;3.698;2022-09-17T11:55:54;2.92;;;0.90;;
70547;SDS011;58099;43.406;3.698;2022-09-17T11:58:45;3.17;;;0.90;;
70547;SDS011;58099;43.406;3.698;2022-09-17T12:01:39;2.97;;;1.00;;
70547;SDS011;58099;43.406;3.698;2022-09-17T12:04:43;3.72;;;0.73;;
70547;SDS011;58099;43.406;3.698;2022-09-17T12:13:13;2.72;;;1.00;;
70547;SDS011;58099;43.406;3.698;2022-09-17T12:15:42;3.92;;;1.13;;
70547;SDS011;58099;43.406;3.698;2022-09-17T12:18:23;2.70;;;1.08;;
70547;SDS011;58099;43.406;3.698;2022-09-17T12:21:13;3.43;;;1.90;;
70547;SDS011;58099;43.406;3.698;2022-09-17T12:23:47;2.95;;;1.20;;
70547;SDS011;58099;43.406;3.698;2022-09-17T12:26:26;3.10;;;1.00;;
70547;SDS011;58099;43.406;3.698;2022-09-17T12:32:13;2.85;;;1.10;;
70547;SDS011;58099;43.406;3.698;2022-09-17T12:37:45;2.65;;;1.10;;
70547;SDS011;58099;43.406;3.698;2022-09-17T12:40:32;3.10;;;1.13;;
70547;SDS011;58099;43.406;3.698;2022-09-17T12:57:18;3.17;;;1.17;;
70547;SDS011;58099;43.406;3.698;2022-09-17T12:59:31;2.90;;;0.80;;
70547;SDS011;58099;43.406;3.698;2022-09-17T13:13:13;2.85;;;0.90;;
70547;SDS011;58099;43.406;3.698;2022-09-17T13:21:30;4.30;;;1.00;;
70547;SDS011;58099;43.406;3.698;2022-09-17T13:24:15;2.63;;;1.08;;
70547;SDS011;58099;43.406;3.698;2022-09-17T13:26:43;2.72;;;0.95;;
70547;SDS011;58099;43.406;3.698;2022-09-17T13:29:14;3.08;;;1.02;;
70547;SDS011;58099;43.406;3.698;2022-09-17T13:37:41;3.38;;;1.25;;
70547;SDS011;58099;43.406;3.698;2022-09-17T13:40:29;2.95;;;0.95;;
70547;SDS011;58099;43.406;3.698;2022-09-17T13:45:32;3.20;;;0.83;;
70547;SDS011;58099;43.406;3.698;2022-09-17T13:48:19;2.67;;;1.00;;
70547;SDS011;58099;43.406;3.698;2022-09-17T13:50:47;3.25;;;1.10;;
70547;SDS011;58099;43.406;3.698;2022-09-17T13:55:43;2.80;;;0.90;;
70547;SDS011;58099;43.406;3.698;2022-09-17T14:05:53;2.67;;;0.60;;
70547;SDS011;58099;43.406;3.698;2022-09-17T14:08:24;3.67;;;0.73;;
70547;SDS011;58099;43.406;3.698;2022-09-17T14:10:56;3.90;;;0.82;;
70547;SDS011;58099;43.406;3.698;2022-09-17T14:13:27;2.80;;;0.67;;
70547;SDS011;58099;43.406;3.698;2022-09-17T14:21:57;2.75;;;0.80;;
70547;SDS011;58099;43.406;3.698;2022-09-17T14:38:19;4.50;;;1.52;;
70547;SDS011;58099;43.406;3.698;2022-09-17T14:43:42;3.38;;;0.90;;
70547;SDS011;58099;43.406;3.698;2022-09-17T14:47:10;2.80;;;0.98;;
70547;SDS011;58099;43.406;3.698;2022-09-17T14:49:25;2.92;;;0.80;;
70547;SDS011;58099;43.406;3.698;2022-09-17T14:51:52;3.08;;;0.73;;
70547;SDS011;58099;43.406;3.698;2022-09-17T14:54:20;3.57;;;0.87;;
70547;SDS011;58099;43.406;3.698;2022-09-17T14:56:57;3.03;;;0.80;;
70547;SDS011;58099;43.406;3.698;2022-09-17T14:59:26;3.85;;;0.82;;
70547;SDS011;58099;43.406;3.698;2022-09-17T15:01:58;2.50;;;0.82;;
70547;SDS011;58099;43.406;3.698;2022-09-17T15:04:25;3.40;;;0.93;;
70547;SDS011;58099;43.406;3.698;2022-09-17T15:06:51;2.50;;;0.90;;
70547;SDS011;58099;43.406;3.698;2022-09-17T15:09:32;3.63;;;1.02;;
70547;SDS011;58099;43.406;3.698;2022-09-17T15:11:58;3.40;;;0.82;;
70547;SDS011;58099;43.406;3.698;2022-09-17T15:14:32;3.63;;;0.90;;
70547;SDS011;58099;43.406;3.698;2022-09-17T15:17:02;2.50;;;0.70;;
70547;SDS011;58099;43.406;3.698;2022-09-17T15:19:30;2.70;;;0.88;;
70547;SDS011;58099;43.406;3.698;2022-09-17T15:22:04;2.70;;;0.90;;
70547;SDS011;58099;43.406;3.698;2022-09-17T15:27:38;3.00;;;1.00;;
70547;SDS011;58099;43.406;3.698;2022-09-17T15:32:34;2.45;;;0.70;;
70547;SDS011;58099;43.406;3.698;2022-09-17T15:38:01;2.70;;;0.87;;
70547;SDS011;58099;43.406;3.698;2022-09-17T15:40:50;3.58;;;0.55;;
70547;SDS011;58099;43.406;3.698;2022-09-17T15:43:17;2.30;;;0.57;;
70547;SDS011;58099;43.406;3.698;2022-09-17T15:45:54;3.20;;;1.02;;
70547;SDS011;58099;43.406;3.698;2022-09-17T15:50:58;3.33;;;0.70;;
70547;SDS011;58099;43.406;3.698;2022-09-17T15:53:28;1.95;;;0.38;;
70547;SDS011;58099;43.406;3.698;2022-09-17T16:11:16;3.50;;;0.70;;
70547;SDS011;58099;43.406;3.698;2022-09-17T16:13:47;2.90;;;0.80;;
70547;SDS011;58099;43.406;3.698;2022-09-17T16:16:17;2.90;;;0.60;;
70547;SDS011;58099;43.406;3.698;2022-09-17T16:18:44;3.20;;;0.73;;
70547;SDS011;58099;43.406;3.698;2022-09-17T16:21:11;3.17;;;0.63;;
70547;SDS011;58099;43.406;3.698;2022-09-17T16:23:37;3.75;;;0.70;;
70547;SDS011;58099;43.406;3.698;2022-09-17T16:26:04;4.80;;;0.97;;
70547;SDS011;58099;43.406;3.698;2022-09-17T16:28:31;4.05;;;1.20;;
70547;SDS011;58099;43.406;3.698;2022-09-17T16:30:57;3.15;;;0.75;;
70547;SDS011;58099;43.406;3.698;2022-09-17T16:33:23;3.15;;;0.70;;
70547;SDS011;58099;43.406;3.698;2022-09-17T16:35:55;3.17;;;0.67;;
70547;SDS011;58099;43.406;3.698;2022-09-17T16:38:22;2.53;;;0.77;;
70547;SDS011;58099;43.406;3.698;2022-09-17T16:40:48;2.70;;;0.80;;
70547;SDS011;58099;43.406;3.698;2022-09-17T16:43:15;2.80;;;0.80;;
70547;SDS011;58099;43.406;3.698;2022-09-17T16:45:42;3.05;;;0.70;;
70547;SDS011;58099;43.406;3.698;2022-09-17T16:48:08;2.50;;;0.70;;
70547;SDS011;58099;43.406;3.698;2022-09-17T16:50:34;4.25;;;1.02;;
70547;SDS011;58099;43.406;3.698;2022-09-17T16:53:05;3.20;;;0.73;;
70547;SDS011;58099;43.406;3.698;2022-09-17T16:55:31;3.50;;;0.77;;
70547;SDS011;58099;43.406;3.698;2022-09-17T16:57:56;3.08;;;0.65;;
70547;SDS011;58099;43.406;3.698;2022-09-17T17:00:23;2.30;;;0.43;;
70547;SDS011;58099;43.406;3.698;2022-09-17T17:02:50;2.80;;;0.65;;
70547;SDS011;58099;43.406;3.698;2022-09-17T17:05:20;3.37;;;0.60;;
70547;SDS011;58099;43.406;3.698;2022-09-17T17:07:47;2.67;;;0.40;;
70547;SDS011;58099;43.406;3.698;2022-09-17T17:10:12;2.83;;;0.50;;
70547;SDS011;58099;43.406;3.698;2022-09-17T17:12:38;3.20;;;0.70;;
70547;SDS011;58099;43.406;3.698;2022-09-17T17:15:04;2.47;;;0.50;;
70547;SDS011;58099;43.406;3.698;2022-09-17T17:17:31;2.70;;;0.60;;
70547;SDS011;58099;43.406;3.698;2022-09-17T17:19:59;2.42;;;0.50;;
70547;SDS011;58099;43.406;3.698;2022-09-17T17:22:27;5.35;;;2.35;;
70547;SDS011;58099;43.406;3.698;2022-09-17T17:24:53;4.50;;;0.90;;
70547;SDS011;58099;43.406;3.698;2022-09-17T17:27:19;4.00;;;1.52;;
70547;SDS011;58099;43.406;3.698;2022-09-17T17:29:44;4.03;;;1.10;;
70547;SDS011;58099;43.406;3.698;2022-09-17T17:32:10;4.60;;;0.60;;
70547;SDS011;58099;43.406;3.698;2022-09-17T17:34:36;2.70;;;0.60;;
70547;SDS011;58099;43.406;3.698;2022-09-17T17:37:01;2.67;;;0.65;;
70547;SDS011;58099;43.406;3.698;2022-09-17T17:39:27;3.58;;;0.50;;
70547;SDS011;58099;43.406;3.698;2022-09-17T17:41:53;2.63;;;0.50;;
70547;SDS011;58099;43.406;3.698;2022-09-17T17:44:19;3.22;;;0.63;;
70547;SDS011;58099;43.406;3.698;2022-09-17T17:46:45;2.42;;;0.50;;
70547;SDS011;58099;43.406;3.698;2022-09-17T17:49:11;2.87;;;0.67;;
70547;SDS011;58099;43.406;3.698;2022-09-17T17:51:37;3.42;;;0.68;;
70547;SDS011;58099;43.406;3.698;2022-09-17T17:54:03;3.00;;;0.63;;
70547;SDS011;58099;43.406;3.698;2022-09-17T17:56:28;3.58;;;0.63;;
70547;SDS011;58099;43.406;3.698;2022-09-17T17:58:55;3.92;;;0.80;;
70547;SDS011;58099;43.406;3.698;2022-09-17T18:01:24;3.20;;;0.82;;
70547;SDS011;58099;43.406;3.698;2022-09-17T18:03:57;3.33;;;0.70;;
70547;SDS011;58099;43.406;3.698;2022-09-17T18:06:24;4.32;;;1.10;;
70547;SDS011;58099;43.406;3.698;2022-09-17T18:08:51;3.75;;;0.90;;
70547;SDS011;58099;43.406;3.698;2022-09-17T18:11:17;3.87;;;0.80;;
70547;SDS011;58099;43.406;3.698;2022-09-17T18:13:44;3.20;;;0.80;;
70547;SDS011;58099;43.406;3.698;2022-09-17T18:16:10;3.97;;;0.82;;
70547;SDS011;58099;43.406;3.698;2022-09-17T18:18:38;3.10;;;0.90;;
70547;SDS011;58099;43.406;3.698;2022-09-17T18:21:06;3.63;;;0.70;;
70547;SDS011;58099;43.406;3.698;2022-09-17T18:23:35;3.25;;;0.68;;
70547;SDS011;58099;43.406;3.698;2022-09-17T18:26:02;3.72;;;0.70;;
70547;SDS011;58099;43.406;3.698;2022-09-17T18:28:29;3.42;;;0.80;;
70547;SDS011;58099;43.406;3.698;2022-09-17T18:30:56;3.72;;;1.00;;
70547;SDS011;58099;43.406;3.698;2022-09-17T18:33:27;3.63;;;0.70;;
70547;SDS011;58099;43.406;3.698;2022-09-17T18:35:53;3.17;;;0.70;;
70547;SDS011;58099;43.406;3.698;2022-09-17T18:38:25;4.30;;;0.82;;
70547;SDS011;58099;43.406;3.698;2022-09-17T18:40:51;3.30;;;0.70;;
70547;SDS011;58099;43.406;3.698;2022-09-17T18:43:17;2.63;;;0.80;;
70547;SDS011;58099;43.406;3.698;2022-09-17T18:45:43;2.93;;;0.80;;
70547;SDS011;58099;43.406;3.698;2022-09-17T18:48:17;4.15;;;0.90;;
70547;SDS011;58099;43.406;3.698;2022-09-17T18:50:53;3.30;;;0.90;;
70547;SDS011;58099;43.406;3.698;2022-09-17T18:53:29;3.70;;;1.10;;
70547;SDS011;58099;43.406;3.698;2022-09-17T18:55:59;3.90;;;0.80;;
70547;SDS011;58099;43.406;3.698;2022-09-17T18:58:28;3.25;;;0.80;;
70547;SDS011;58099;43.406;3.698;2022-09-17T19:00:54;3.25;;;0.70;;
70547;SDS011;58099;43.406;3.698;2022-09-17T19:03:21;4.38;;;0.90;;
70547;SDS011;58099;43.406;3.698;2022-09-17T19:05:46;2.80;;;0.50;;
70547;SDS011;58099;43.406;3.698;2022-09-17T19:08:12;4.15;;;0.70;;
70547;SDS011;58099;43.406;3.698;2022-09-17T19:10:38;3.65;;;0.60;;
70547;SDS011;58099;43.406;3.698;2022-09-17T19:13:04;3.87;;;0.77;;
70547;SDS011;58099;43.406;3.698;2022-09-17T19:15:31;3.08;;;0.70;;
70547;SDS011;58099;43.406;3.698;2022-09-17T19:17:57;2.95;;;0.68;;
70547;SDS011;58099;43.406;3.698;2022-09-17T19:20:23;3.30;;;0.67;;
70547;SDS011;58099;43.406;3.698;2022-09-17T19:22:50;4.22;;;0.80;;
70547;SDS011;58099;43.406;3.698;2022-09-17T19:25:16;2.90;;;0.60;;
70547;SDS011;58099;43.406;3.698;2022-09-17T19:27:44;3.45;;;0.65;;
70547;SDS011;58099;43.406;3.698;2022-09-17T19:30:11;2.87;;;0.53;;